sensor_id;sensor_type;location;lat;lon;timestamp;P1;durP1;ratioP1;P2;durP2;ratioP2
18021;SDS011;9136;48.822;7.966;2023-08-07T00:00:33;16.43;;;15.73;;
18021;SDS011;9136;48.822;7.966;2023-08-07T00:30:49;23.40;;;16.00;;
18021;SDS011;9136;48.822;7.966;2023-08-07T00:33:58;18.63;;;17.83;;
18021;SDS011;9136;48.822;7.966;2023-08-07T00:40:09;16.40;;;15.70;;
18021;SDS011;9136;48.822;7.966;2023-08-07T01:00:35;17.23;;;16.53;;
18021;SDS011;9136;48.822;7.966;2023-08-07T01:04:09;15.73;;;15.03;;
18021;SDS011;9136;48.822;7.966;2023-08-07T01:08:00;18.27;;;17.47;;
18021;SDS011;9136;48.822;7.966;2023-08-07T01:10:48;18.83;;;18.00;;
18021;SDS011;9136;48.822;7.966;2023-08-07T01:24:43;17.00;;;16.20;;
18021;SDS011;9136;48.822;7.966;2023-08-07T01:31:45;16.77;;;16.07;;
18021;SDS011;9136;48.822;7.966;2023-08-07T01:35:22;17.43;;;16.63;;
18021;SDS011;9136;48.822;7.966;2023-08-07T01:45:31;20.63;;;18.60;;
18021;SDS011;9136;48.822;7.966;2023-08-07T01:48:59;19.13;;;18.33;;
18021;SDS011;9136;48.822;7.966;2023-08-07T01:53:01;17.20;;;16.40;;
18021;SDS011;9136;48.822;7.966;2023-08-07T01:56:48;18.60;;;17.80;;
18021;SDS011;9136;48.822;7.966;2023-08-07T02:04:09;19.60;;;18.70;;
18021;SDS011;9136;48.822;7.966;2023-08-07T02:08:01;18.37;;;17.57;;
18021;SDS011;9136;48.822;7.966;2023-08-07T02:11:19;18.10;;;17.30;;
18021;SDS011;9136;48.822;7.966;2023-08-07T02:14:42;19.93;;;19.03;;
18021;SDS011;9136;48.822;7.966;2023-08-07T02:38:26;16.57;;;15.80;;
18021;SDS011;9136;48.822;7.966;2023-08-07T02:41:40;19.30;;;18.30;;
18021;SDS011;9136;48.822;7.966;2023-08-07T02:44:49;18.77;;;17.97;;
18021;SDS011;9136;48.822;7.966;2023-08-07T02:48:21;18.67;;;17.87;;
18021;SDS011;9136;48.822;7.966;2023-08-07T02:52:39;16.90;;;16.10;;
18021;SDS011;9136;48.822;7.966;2023-08-07T02:55:45;16.83;;;16.13;;
18021;SDS011;9136;48.822;7.966;2023-08-07T02:59:15;18.37;;;17.57;;
18021;SDS011;9136;48.822;7.966;2023-08-07T03:02:36;17.97;;;17.17;;
18021;SDS011;9136;48.822;7.966;2023-08-07T03:09:36;20.00;;;19.10;;
18021;SDS011;9136;48.822;7.966;2023-08-07T03:29:07;18.47;;;17.67;;
18021;SDS011;9136;48.822;7.966;2023-08-07T03:32:17;14.73;;;14.13;;
18021;SDS011;9136;48.822;7.966;2023-08-07T03:35:38;18.00;;;17.20;;
18021;SDS011;9136;48.822;7.966;2023-08-07T03:42:30;18.00;;;17.20;;
18021;SDS011;9136;48.822;7.966;2023-08-07T03:49:16;18.33;;;17.53;;
18021;SDS011;9136;48.822;7.966;2023-08-07T03:52:43;19.27;;;18.33;;
18021;SDS011;9136;48.822;7.966;2023-08-07T03:59:40;18.30;;;17.50;;
18021;SDS011;9136;48.822;7.966;2023-08-07T04:06:01;18.57;;;17.70;;
18021;SDS011;9136;48.822;7.966;2023-08-07T04:09:08;18.47;;;17.57;;
18021;SDS011;9136;48.822;7.966;2023-08-07T04:12:22;17.27;;;16.47;;
18021;SDS011;9136;48.822;7.966;2023-08-07T04:15:26;16.73;;;15.97;;
18021;SDS011;9136;48.822;7.966;2023-08-07T04:21:50;20.43;;;19.47;;
18021;SDS011;9136;48.822;7.966;2023-08-07T04:24:54;16.80;;;16.00;;
18021;SDS011;9136;48.822;7.966;2023-08-07T04:27:54;17.13;;;16.33;;
18021;SDS011;9136;48.822;7.966;2023-08-07T04:31:05;18.73;;;17.93;;
18021;SDS011;9136;48.822;7.966;2023-08-07T04:34:03;16.53;;;15.83;;
18021;SDS011;9136;48.822;7.966;2023-08-07T04:40:25;17.83;;;17.00;;
18021;SDS011;9136;48.822;7.966;2023-08-07T04:43:30;18.00;;;17.20;;
18021;SDS011;9136;48.822;7.966;2023-08-07T04:46:31;17.87;;;17.07;;
18021;SDS011;9136;48.822;7.966;2023-08-07T04:50:07;18.00;;;17.20;;
18021;SDS011;9136;48.822;7.966;2023-08-07T04:53:25;19.30;;;18.50;;
18021;SDS011;9136;48.822;7.966;2023-08-07T04:56:45;16.47;;;15.77;;
18021;SDS011;9136;48.822;7.966;2023-08-07T04:59:43;19.03;;;18.23;;
18021;SDS011;9136;48.822;7.966;2023-08-07T05:06:28;18.07;;;17.27;;
18021;SDS011;9136;48.822;7.966;2023-08-07T05:09:45;16.53;;;15.83;;
18021;SDS011;9136;48.822;7.966;2023-08-07T05:13:28;17.00;;;16.27;;
18021;SDS011;9136;48.822;7.966;2023-08-07T05:16:20;17.93;;;17.13;;
18021;SDS011;9136;48.822;7.966;2023-08-07T05:19:42;18.30;;;17.50;;
18021;SDS011;9136;48.822;7.966;2023-08-07T05:26:04;19.27;;;18.47;;
18021;SDS011;9136;48.822;7.966;2023-08-07T05:33:09;16.50;;;15.80;;
18021;SDS011;9136;48.822;7.966;2023-08-07T05:36:13;19.13;;;18.20;;
18021;SDS011;9136;48.822;7.966;2023-08-07T05:53:23;16.73;;;16.03;;
18021;SDS011;9136;48.822;7.966;2023-08-07T05:56:19;17.93;;;17.10;;
18021;SDS011;9136;48.822;7.966;2023-08-07T05:59:22;16.53;;;15.83;;
18021;SDS011;9136;48.822;7.966;2023-08-07T06:02:34;17.47;;;16.67;;
18021;SDS011;9136;48.822;7.966;2023-08-07T06:06:02;17.83;;;17.03;;
18021;SDS011;9136;48.822;7.966;2023-08-07T06:13:51;17.23;;;16.43;;
18021;SDS011;9136;48.822;7.966;2023-08-07T06:16:22;18.27;;;17.47;;
18021;SDS011;9136;48.822;7.966;2023-08-07T06:19:35;16.50;;;15.80;;
18021;SDS011;9136;48.822;7.966;2023-08-07T06:22:46;16.47;;;15.77;;
18021;SDS011;9136;48.822;7.966;2023-08-07T06:25:50;17.27;;;16.47;;
18021;SDS011;9136;48.822;7.966;2023-08-07T06:29:04;16.03;;;15.33;;
18021;SDS011;9136;48.822;7.966;2023-08-07T06:35:34;17.13;;;16.33;;
18021;SDS011;9136;48.822;7.966;2023-08-07T06:42:18;17.63;;;16.83;;
18021;SDS011;9136;48.822;7.966;2023-08-07T06:48:54;17.90;;;16.63;;
18021;SDS011;9136;48.822;7.966;2023-08-07T06:52:58;16.30;;;15.60;;
18021;SDS011;9136;48.822;7.966;2023-08-07T08:38:57;15.90;;;15.20;;
18021;SDS011;9136;48.822;7.966;2023-08-07T08:42:15;13.47;;;12.87;;
18021;SDS011;9136;48.822;7.966;2023-08-07T08:49:23;14.70;;;14.10;;
18021;SDS011;9136;48.822;7.966;2023-08-07T09:49:40;14.80;;;14.10;;
18021;SDS011;9136;48.822;7.966;2023-08-07T09:52:53;15.18;;;14.48;;
18021;SDS011;9136;48.822;7.966;2023-08-07T09:55:58;15.38;;;14.57;;
18021;SDS011;9136;48.822;7.966;2023-08-07T10:10:06;13.80;;;13.15;;
18021;SDS011;9136;48.822;7.966;2023-08-07T10:13:39;14.55;;;13.95;;
18021;SDS011;9136;48.822;7.966;2023-08-07T10:17:02;14.05;;;13.45;;
18021;SDS011;9136;48.822;7.966;2023-08-07T10:24:09;15.32;;;14.65;;
18021;SDS011;9136;48.822;7.966;2023-08-07T10:41:52;14.52;;;13.93;;
18021;SDS011;9136;48.822;7.966;2023-08-07T10:45:00;13.20;;;12.60;;
18021;SDS011;9136;48.822;7.966;2023-08-07T10:52:06;13.00;;;12.45;;
18021;SDS011;9136;48.822;7.966;2023-08-07T10:58:58;12.85;;;12.35;;
18021;SDS011;9136;48.822;7.966;2023-08-07T11:05:58;14.85;;;14.15;;
18021;SDS011;9136;48.822;7.966;2023-08-07T11:12:41;15.07;;;14.38;;
18021;SDS011;9136;48.822;7.966;2023-08-07T11:15:57;13.88;;;13.27;;
18021;SDS011;9136;48.822;7.966;2023-08-07T11:19:26;15.88;;;15.18;;
18021;SDS011;9136;48.822;7.966;2023-08-07T11:24:40;15.13;;;14.50;;
18021;SDS011;9136;48.822;7.966;2023-08-07T11:26:12;14.50;;;13.82;;
18021;SDS011;9136;48.822;7.966;2023-08-07T11:29:47;14.27;;;13.68;;
18021;SDS011;9136;48.822;7.966;2023-08-07T11:33:00;13.50;;;12.90;;
18021;SDS011;9136;48.822;7.966;2023-08-07T11:36:19;14.43;;;13.82;;
18021;SDS011;9136;48.822;7.966;2023-08-07T11:39:48;14.80;;;14.18;;
18021;SDS011;9136;48.822;7.966;2023-08-07T11:47:08;14.25;;;13.65;;
18021;SDS011;9136;48.822;7.966;2023-08-07T11:50:25;14.60;;;14.00;;
18021;SDS011;9136;48.822;7.966;2023-08-07T11:53:32;14.50;;;13.80;;
18021;SDS011;9136;48.822;7.966;2023-08-07T11:56:45;14.07;;;13.48;;
18021;SDS011;9136;48.822;7.966;2023-08-07T11:59:42;14.13;;;13.52;;
18021;SDS011;9136;48.822;7.966;2023-08-07T12:03:12;13.68;;;13.07;;
18021;SDS011;9136;48.822;7.966;2023-08-07T12:06:37;14.02;;;13.32;;
18021;SDS011;9136;48.822;7.966;2023-08-07T12:09:59;12.30;;;11.75;;
18021;SDS011;9136;48.822;7.966;2023-08-07T12:13:49;13.55;;;12.95;;
18021;SDS011;9136;48.822;7.966;2023-08-07T12:21:16;15.13;;;14.43;;
18021;SDS011;9136;48.822;7.966;2023-08-07T12:30:59;12.60;;;12.10;;
18021;SDS011;9136;48.822;7.966;2023-08-07T12:41:56;12.77;;;12.27;;
18021;SDS011;9136;48.822;7.966;2023-08-07T12:45:40;11.88;;;11.38;;
18021;SDS011;9136;48.822;7.966;2023-08-07T12:48:56;11.75;;;11.25;;
18021;SDS011;9136;48.822;7.966;2023-08-07T12:52:01;12.02;;;11.52;;
18021;SDS011;9136;48.822;7.966;2023-08-07T12:55:24;12.30;;;11.80;;
18021;SDS011;9136;48.822;7.966;2023-08-07T12:58:50;12.00;;;11.50;;
18021;SDS011;9136;48.822;7.966;2023-08-07T13:02:07;12.93;;;12.32;;
18021;SDS011;9136;48.822;7.966;2023-08-07T13:08:31;15.45;;;14.75;;
18021;SDS011;9136;48.822;7.966;2023-08-07T13:11:42;14.73;;;14.02;;
18021;SDS011;9136;48.822;7.966;2023-08-07T13:14:36;15.35;;;14.65;;
18021;SDS011;9136;48.822;7.966;2023-08-07T13:17:36;14.18;;;13.57;;
18021;SDS011;9136;48.822;7.966;2023-08-07T13:21:07;13.80;;;13.20;;
18021;SDS011;9136;48.822;7.966;2023-08-07T13:28:10;13.20;;;12.60;;
18021;SDS011;9136;48.822;7.966;2023-08-07T13:31:14;12.52;;;12.02;;
18021;SDS011;9136;48.822;7.966;2023-08-07T13:34:46;12.00;;;11.50;;
18021;SDS011;9136;48.822;7.966;2023-08-07T13:38:06;12.07;;;11.57;;
18021;SDS011;9136;48.822;7.966;2023-08-07T13:44:37;12.95;;;12.32;;
18021;SDS011;9136;48.822;7.966;2023-08-07T13:48:03;12.05;;;11.32;;
18021;SDS011;9136;48.822;7.966;2023-08-07T13:50:48;12.20;;;11.70;;
18021;SDS011;9136;48.822;7.966;2023-08-07T13:53:43;13.00;;;12.48;;
18021;SDS011;9136;48.822;7.966;2023-08-07T13:56:33;12.82;;;12.23;;
18021;SDS011;9136;48.822;7.966;2023-08-07T13:59:25;13.77;;;13.07;;
18021;SDS011;9136;48.822;7.966;2023-08-07T14:02:35;13.25;;;12.65;;
18021;SDS011;9136;48.822;7.966;2023-08-07T14:05:32;12.00;;;11.50;;
18021;SDS011;9136;48.822;7.966;2023-08-07T14:08:41;11.70;;;10.93;;
18021;SDS011;9136;48.822;7.966;2023-08-07T14:11:50;12.60;;;12.10;;
18021;SDS011;9136;48.822;7.966;2023-08-07T14:14:54;12.60;;;12.00;;
18021;SDS011;9136;48.822;7.966;2023-08-07T14:17:49;12.77;;;12.18;;
18021;SDS011;9136;48.822;7.966;2023-08-07T14:20:45;13.35;;;12.75;;
18021;SDS011;9136;48.822;7.966;2023-08-07T14:23:50;13.98;;;13.38;;
18021;SDS011;9136;48.822;7.966;2023-08-07T14:26:57;14.20;;;13.48;;
18021;SDS011;9136;48.822;7.966;2023-08-07T14:29:58;13.88;;;13.27;;
18021;SDS011;9136;48.822;7.966;2023-08-07T14:33:06;14.15;;;13.55;;
18021;SDS011;9136;48.822;7.966;2023-08-07T14:36:01;13.88;;;13.27;;
18021;SDS011;9136;48.822;7.966;2023-08-07T14:39:04;13.25;;;12.65;;
18021;SDS011;9136;48.822;7.966;2023-08-07T14:43:30;12.30;;;11.65;;
18021;SDS011;9136;48.822;7.966;2023-08-07T14:45:46;11.48;;;10.98;;
18021;SDS011;9136;48.822;7.966;2023-08-07T14:48:31;12.40;;;11.70;;
18021;SDS011;9136;48.822;7.966;2023-08-07T14:51:37;12.65;;;11.77;;
18021;SDS011;9136;48.822;7.966;2023-08-07T14:55:12;11.93;;;11.43;;
18021;SDS011;9136;48.822;7.966;2023-08-07T14:58:10;12.25;;;11.55;;
18021;SDS011;9136;48.822;7.966;2023-08-07T15:01:06;12.10;;;11.60;;
18021;SDS011;9136;48.822;7.966;2023-08-07T15:03:56;12.45;;;11.82;;
18021;SDS011;9136;48.822;7.966;2023-08-07T15:06:46;12.48;;;11.98;;
18021;SDS011;9136;48.822;7.966;2023-08-07T15:09:38;13.20;;;12.60;;
18021;SDS011;9136;48.822;7.966;2023-08-07T15:12:39;13.20;;;12.63;;
18021;SDS011;9136;48.822;7.966;2023-08-07T15:15:35;13.27;;;12.68;;
18021;SDS011;9136;48.822;7.966;2023-08-07T15:18:25;14.13;;;13.50;;
18021;SDS011;9136;48.822;7.966;2023-08-07T15:21:17;13.75;;;13.15;;
18021;SDS011;9136;48.822;7.966;2023-08-07T15:24:16;14.90;;;14.30;;
18021;SDS011;9136;48.822;7.966;2023-08-07T15:27:22;12.80;;;12.30;;
18021;SDS011;9136;48.822;7.966;2023-08-07T15:30:13;14.35;;;13.75;;
18021;SDS011;9136;48.822;7.966;2023-08-07T15:33:18;14.75;;;14.15;;
18021;SDS011;9136;48.822;7.966;2023-08-07T15:36:25;14.75;;;14.05;;
18021;SDS011;9136;48.822;7.966;2023-08-07T15:39:14;13.68;;;13.07;;
18021;SDS011;9136;48.822;7.966;2023-08-07T15:42:05;16.85;;;14.80;;
18021;SDS011;9136;48.822;7.966;2023-08-07T15:44:56;14.18;;;13.57;;
18021;SDS011;9136;48.822;7.966;2023-08-07T15:47:50;12.60;;;12.10;;
18021;SDS011;9136;48.822;7.966;2023-08-07T15:50:43;13.10;;;12.50;;
18021;SDS011;9136;48.822;7.966;2023-08-07T15:53:46;11.93;;;11.43;;
18021;SDS011;9136;48.822;7.966;2023-08-07T15:56:52;11.60;;;11.10;;
18021;SDS011;9136;48.822;7.966;2023-08-07T15:59:51;11.40;;;10.90;;
18021;SDS011;9136;48.822;7.966;2023-08-07T16:03:13;13.32;;;12.73;;
18021;SDS011;9136;48.822;7.966;2023-08-07T16:06:11;12.50;;;12.00;;
18021;SDS011;9136;48.822;7.966;2023-08-07T16:09:24;11.90;;;11.40;;
18021;SDS011;9136;48.822;7.966;2023-08-07T16:12:13;12.43;;;11.93;;
18021;SDS011;9136;48.822;7.966;2023-08-07T16:15:10;12.63;;;12.13;;
18021;SDS011;9136;48.822;7.966;2023-08-07T16:17:58;12.68;;;12.18;;
18021;SDS011;9136;48.822;7.966;2023-08-07T16:20:50;12.55;;;12.05;;
18021;SDS011;9136;48.822;7.966;2023-08-07T16:23:43;13.02;;;12.32;;
18021;SDS011;9136;48.822;7.966;2023-08-07T16:26:39;11.95;;;11.45;;
18021;SDS011;9136;48.822;7.966;2023-08-07T16:29:29;12.88;;;12.30;;
18021;SDS011;9136;48.822;7.966;2023-08-07T16:32:17;18.63;;;17.73;;
18021;SDS011;9136;48.822;7.966;2023-08-07T16:35:08;13.80;;;13.20;;
18021;SDS011;9136;48.822;7.966;2023-08-07T16:37:57;14.80;;;14.20;;
18021;SDS011;9136;48.822;7.966;2023-08-07T16:40:53;15.50;;;14.80;;
18021;SDS011;9136;48.822;7.966;2023-08-07T16:43:42;14.38;;;13.77;;
18021;SDS011;9136;48.822;7.966;2023-08-07T16:46:34;13.88;;;13.27;;
18021;SDS011;9136;48.822;7.966;2023-08-07T16:49:29;13.52;;;12.93;;
18021;SDS011;9136;48.822;7.966;2023-08-07T16:52:18;12.65;;;12.15;;
18021;SDS011;9136;48.822;7.966;2023-08-07T16:55:07;13.35;;;12.75;;
18021;SDS011;9136;48.822;7.966;2023-08-07T16:58:05;14.10;;;13.43;;
18021;SDS011;9136;48.822;7.966;2023-08-07T17:00:55;13.95;;;13.35;;
18021;SDS011;9136;48.822;7.966;2023-08-07T17:03:46;13.63;;;13.02;;
18021;SDS011;9136;48.822;7.966;2023-08-07T17:07:08;15.43;;;14.75;;
18021;SDS011;9136;48.822;7.966;2023-08-07T17:09:57;13.40;;;12.80;;
18021;SDS011;9136;48.822;7.966;2023-08-07T17:12:52;15.35;;;14.65;;
18021;SDS011;9136;48.822;7.966;2023-08-07T17:44:44;14.70;;;14.07;;
18021;SDS011;9136;48.822;7.966;2023-08-07T17:47:54;14.45;;;13.85;;
18021;SDS011;9136;48.822;7.966;2023-08-07T17:50:55;13.45;;;12.85;;
18021;SDS011;9136;48.822;7.966;2023-08-07T17:54:22;13.18;;;12.57;;
18021;SDS011;9136;48.822;7.966;2023-08-07T18:11:50;14.32;;;13.63;;
18021;SDS011;9136;48.822;7.966;2023-08-07T18:32:28;14.05;;;13.35;;
18021;SDS011;9136;48.822;7.966;2023-08-07T18:35:52;12.93;;;12.32;;
18021;SDS011;9136;48.822;7.966;2023-08-07T18:39:32;12.98;;;12.43;;
18021;SDS011;9136;48.822;7.966;2023-08-07T18:42:35;13.95;;;13.35;;
18021;SDS011;9136;48.822;7.966;2023-08-07T18:45:50;14.00;;;13.40;;
18021;SDS011;9136;48.822;7.966;2023-08-07T18:48:56;14.70;;;14.10;;
18021;SDS011;9136;48.822;7.966;2023-08-07T18:51:58;13.55;;;12.95;;
18021;SDS011;9136;48.822;7.966;2023-08-07T18:55:02;15.07;;;14.32;;
18021;SDS011;9136;48.822;7.966;2023-08-07T18:58:03;13.00;;;12.45;;
18021;SDS011;9136;48.822;7.966;2023-08-07T19:01:12;14.13;;;13.43;;
18021;SDS011;9136;48.822;7.966;2023-08-07T19:11:25;12.93;;;12.40;;
18021;SDS011;9136;48.822;7.966;2023-08-07T19:14:42;12.95;;;12.45;;
18021;SDS011;9136;48.822;7.966;2023-08-07T19:31:50;14.17;;;13.57;;
18021;SDS011;9136;48.822;7.966;2023-08-07T19:35:05;14.53;;;13.93;;
18021;SDS011;9136;48.822;7.966;2023-08-07T19:38:15;14.27;;;13.67;;
18021;SDS011;9136;48.822;7.966;2023-08-07T19:41:12;15.07;;;14.47;;
18021;SDS011;9136;48.822;7.966;2023-08-07T19:44:37;14.77;;;14.07;;
18021;SDS011;9136;48.822;7.966;2023-08-07T19:47:40;16.00;;;14.80;;
18021;SDS011;9136;48.822;7.966;2023-08-07T19:51:14;14.70;;;14.03;;
18021;SDS011;9136;48.822;7.966;2023-08-07T19:57:51;14.73;;;14.13;;
18021;SDS011;9136;48.822;7.966;2023-08-07T20:04:26;14.60;;;14.00;;
18021;SDS011;9136;48.822;7.966;2023-08-07T20:11:34;13.17;;;12.57;;
18021;SDS011;9136;48.822;7.966;2023-08-07T20:18:08;13.63;;;13.03;;
18021;SDS011;9136;48.822;7.966;2023-08-07T20:21:08;15.30;;;14.60;;
18021;SDS011;9136;48.822;7.966;2023-08-07T20:24:19;14.83;;;14.23;;
18021;SDS011;9136;48.822;7.966;2023-08-07T20:27:28;14.10;;;13.50;;
18021;SDS011;9136;48.822;7.966;2023-08-07T20:30:23;15.13;;;14.47;;
18021;SDS011;9136;48.822;7.966;2023-08-07T20:37:11;15.73;;;15.03;;
18021;SDS011;9136;48.822;7.966;2023-08-07T20:40:16;14.73;;;14.10;;
18021;SDS011;9136;48.822;7.966;2023-08-07T20:43:26;14.53;;;13.87;;
18021;SDS011;9136;48.822;7.966;2023-08-07T20:46:28;16.33;;;15.43;;
18021;SDS011;9136;48.822;7.966;2023-08-07T20:49:28;14.70;;;14.10;;
18021;SDS011;9136;48.822;7.966;2023-08-07T20:52:18;14.73;;;14.13;;
18021;SDS011;9136;48.822;7.966;2023-08-07T20:55:28;15.40;;;14.70;;
18021;SDS011;9136;48.822;7.966;2023-08-07T20:58:42;15.37;;;14.70;;
18021;SDS011;9136;48.822;7.966;2023-08-07T21:02:02;13.97;;;13.27;;
18021;SDS011;9136;48.822;7.966;2023-08-07T21:05:32;14.43;;;13.83;;
18021;SDS011;9136;48.822;7.966;2023-08-07T21:08:38;14.30;;;13.70;;
18021;SDS011;9136;48.822;7.966;2023-08-07T21:11:35;17.00;;;16.23;;
18021;SDS011;9136;48.822;7.966;2023-08-07T21:14:51;15.53;;;14.83;;
18021;SDS011;9136;48.822;7.966;2023-08-07T21:17:52;15.23;;;14.53;;
18021;SDS011;9136;48.822;7.966;2023-08-07T21:20:49;15.03;;;14.43;;
18021;SDS011;9136;48.822;7.966;2023-08-07T21:23:43;14.00;;;13.40;;
18021;SDS011;9136;48.822;7.966;2023-08-07T21:26:41;15.77;;;14.97;;
18021;SDS011;9136;48.822;7.966;2023-08-07T21:29:34;15.20;;;14.50;;
18021;SDS011;9136;48.822;7.966;2023-08-07T21:32:31;14.43;;;13.83;;
18021;SDS011;9136;48.822;7.966;2023-08-07T21:35:22;15.63;;;14.93;;
18021;SDS011;9136;48.822;7.966;2023-08-07T21:38:32;15.43;;;14.73;;
18021;SDS011;9136;48.822;7.966;2023-08-07T21:41:53;15.70;;;15.00;;
18021;SDS011;9136;48.822;7.966;2023-08-07T21:44:49;14.53;;;13.93;;
18021;SDS011;9136;48.822;7.966;2023-08-07T21:47:42;15.60;;;14.90;;
18021;SDS011;9136;48.822;7.966;2023-08-07T21:50:39;16.80;;;16.10;;
18021;SDS011;9136;48.822;7.966;2023-08-07T21:56:55;16.03;;;15.33;;
18021;SDS011;9136;48.822;7.966;2023-08-07T21:59:57;14.13;;;13.53;;
18021;SDS011;9136;48.822;7.966;2023-08-07T22:02:56;17.83;;;17.03;;
18021;SDS011;9136;48.822;7.966;2023-08-07T22:05:52;17.63;;;16.83;;
18021;SDS011;9136;48.822;7.966;2023-08-07T22:08:45;16.97;;;16.23;;
18021;SDS011;9136;48.822;7.966;2023-08-07T22:11:45;14.80;;;14.20;;
18021;SDS011;9136;48.822;7.966;2023-08-07T22:14:50;16.53;;;15.83;;
18021;SDS011;9136;48.822;7.966;2023-08-07T22:17:52;16.43;;;15.73;;
18021;SDS011;9136;48.822;7.966;2023-08-07T22:20:50;16.20;;;15.50;;
18021;SDS011;9136;48.822;7.966;2023-08-07T22:23:47;15.40;;;14.70;;
18021;SDS011;9136;48.822;7.966;2023-08-07T22:26:50;15.90;;;15.20;;
18021;SDS011;9136;48.822;7.966;2023-08-07T22:31:20;16.23;;;15.43;;
18021;SDS011;9136;48.822;7.966;2023-08-07T22:33:10;16.27;;;15.57;;
18021;SDS011;9136;48.822;7.966;2023-08-07T22:36:21;15.87;;;15.17;;
18021;SDS011;9136;48.822;7.966;2023-08-07T22:39:26;14.40;;;13.80;;
18021;SDS011;9136;48.822;7.966;2023-08-07T22:46:04;14.83;;;14.23;;
18021;SDS011;9136;48.822;7.966;2023-08-07T22:48:56;15.93;;;15.03;;
18021;SDS011;9136;48.822;7.966;2023-08-07T22:52:15;15.27;;;14.57;;
18021;SDS011;9136;48.822;7.966;2023-08-07T22:55:11;15.70;;;15.00;;
18021;SDS011;9136;48.822;7.966;2023-08-07T22:58:21;16.43;;;15.67;;
18021;SDS011;9136;48.822;7.966;2023-08-07T23:01:35;15.80;;;15.10;;
18021;SDS011;9136;48.822;7.966;2023-08-07T23:04:34;14.53;;;13.93;;
18021;SDS011;9136;48.822;7.966;2023-08-07T23:07:35;16.60;;;15.90;;
18021;SDS011;9136;48.822;7.966;2023-08-07T23:10:44;15.27;;;14.57;;
18021;SDS011;9136;48.822;7.966;2023-08-07T23:13:50;15.67;;;14.97;;
18021;SDS011;9136;48.822;7.966;2023-08-07T23:16:49;15.60;;;14.90;;
18021;SDS011;9136;48.822;7.966;2023-08-07T23:19:50;15.87;;;15.17;;
18021;SDS011;9136;48.822;7.966;2023-08-07T23:22:47;15.10;;;14.47;;
18021;SDS011;9136;48.822;7.966;2023-08-07T23:26:12;16.57;;;15.87;;
18021;SDS011;9136;48.822;7.966;2023-08-07T23:29:24;16.80;;;16.00;;
18021;SDS011;9136;48.822;7.966;2023-08-07T23:39:03;15.47;;;14.77;;
18021;SDS011;9136;48.822;7.966;2023-08-07T23:42:06;16.50;;;15.80;;
18021;SDS011;9136;48.822;7.966;2023-08-07T23:45:26;16.17;;;15.47;;
18021;SDS011;9136;48.822;7.966;2023-08-07T23:48:17;16.13;;;15.43;;
18021;SDS011;9136;48.822;7.966;2023-08-07T23:51:20;15.13;;;14.43;;
18021;SDS011;9136;48.822;7.966;2023-08-07T23:54:14;16.17;;;15.47;;
18021;SDS011;9136;48.822;7.966;2023-08-07T23:57:32;16.87;;;16.17;;
